createdAt,value
2018-01-25T00:02:26.499Z,12.30
2018-01-25T00:05:00.158Z,12.30
2018-01-25T00:07:33.927Z,12.20
2018-01-25T00:10:08.819Z,12.30
2018-01-25T00:12:42.480Z,12.30
2018-01-25T00:15:16.249Z,12.20
2018-01-25T00:17:50.642Z,12.20
2018-01-25T00:20:25.230Z,12.20
2018-01-25T00:23:00.229Z,12.20
2018-01-25T00:25:34.756Z,12.20
2018-01-25T00:28:09.223Z,12.20
2018-01-25T00:30:44.452Z,12.20
2018-01-25T00:33:18.356Z,12.20
2018-01-25T00:35:52.095Z,12.20
2018-01-25T00:38:25.809Z,12.30
2018-01-25T00:40:59.608Z,12.20
2018-01-25T00:43:34.040Z,12.30
2018-01-25T00:46:08.795Z,12.20
2018-01-25T00:48:43.159Z,12.30
2018-01-25T00:51:16.944Z,12.30
2018-01-25T00:53:50.750Z,12.30
2018-01-25T00:56:24.484Z,12.30
2018-01-25T00:58:58.282Z,12.30
2018-01-25T01:01:32.123Z,12.40
2018-01-25T01:04:07.965Z,12.40
2018-01-25T01:06:41.638Z,12.30
2018-01-25T01:09:15.388Z,12.30
2018-01-25T01:11:50.323Z,12.30
2018-01-25T01:14:24.214Z,12.30
2018-01-25T01:16:58.140Z,12.30
2018-01-25T01:22:11.882Z,12.30
2018-01-25T01:24:45.708Z,12.30
2018-01-25T01:27:19.497Z,12.30
2018-01-25T01:29:53.313Z,12.30
2018-01-25T01:32:26.939Z,12.30
2018-01-25T01:35:00.700Z,12.30
2018-01-25T01:37:35.428Z,12.30
2018-01-25T01:40:09.019Z,12.30
2018-01-25T01:42:43.655Z,12.30
2018-01-25T01:45:17.421Z,12.20
2018-01-25T01:47:51.269Z,12.20
2018-01-25T01:50:25.847Z,12.20
2018-01-25T01:52:59.656Z,12.20
2018-01-25T01:55:34.656Z,12.20
2018-01-25T01:58:09.123Z,12.30
2018-01-25T02:00:42.832Z,12.20
2018-01-25T02:03:16.566Z,12.20
2018-01-25T02:05:50.914Z,12.30
2018-01-25T02:08:24.614Z,12.20
2018-01-25T02:10:58.361Z,12.30
2018-01-25T02:13:32.242Z,12.30
2018-01-25T02:16:06.075Z,11.80
2018-01-25T02:18:39.857Z,10.90
2018-01-25T02:21:13.648Z,10.30
2018-01-25T02:23:48.104Z,9.30
2018-01-25T02:26:22.595Z,9.10
2018-01-25T02:28:56.469Z,9.10
2018-01-25T02:31:31.028Z,8.80
2018-01-25T02:34:04.841Z,8.80
2018-01-25T02:36:38.670Z,8.80
2018-01-25T02:39:12.400Z,8.70
2018-01-25T02:41:46.220Z,8.70
2018-01-25T02:44:19.994Z,8.60
2018-01-25T02:46:53.738Z,8.60
2018-01-25T02:49:27.504Z,8.60
2018-01-25T02:52:01.147Z,8.60
2018-01-25T02:54:34.809Z,8.60
2018-01-25T02:57:08.658Z,8.50
2018-01-25T02:59:42.465Z,8.50
2018-01-25T03:02:16.128Z,8.50
2018-01-25T03:04:50.733Z,8.50
2018-01-25T03:07:25.142Z,8.50
2018-01-25T03:09:59.816Z,8.40
2018-01-25T03:12:33.560Z,8.40
2018-01-25T03:15:08.074Z,8.40
2018-01-25T03:17:42.517Z,8.40
2018-01-25T03:20:17.206Z,8.40
2018-01-25T03:22:50.876Z,8.40
2018-01-25T03:25:25.809Z,8.40
2018-01-25T03:27:59.431Z,8.40
2018-01-25T03:30:33.339Z,8.50
2018-01-25T03:33:08.716Z,8.50
2018-01-25T03:35:43.503Z,8.50
2018-01-25T03:38:17.194Z,8.50
2018-01-25T03:40:50.899Z,8.50
2018-01-25T03:43:25.388Z,8.50
2018-01-25T03:45:59.934Z,8.50
2018-01-25T03:48:34.577Z,8.50
2018-01-25T03:51:08.488Z,8.50
2018-01-25T03:53:43.076Z,8.50
2018-01-25T03:56:16.828Z,8.40
2018-01-25T03:58:50.728Z,8.40
2018-01-25T04:01:24.434Z,8.40
2018-01-25T04:03:59.691Z,8.40
2018-01-25T04:06:33.338Z,8.40
2018-01-25T04:09:06.973Z,8.40
2018-01-25T04:11:40.879Z,8.30
2018-01-25T04:14:14.667Z,8.30
2018-01-25T04:16:49.236Z,8.30
2018-01-25T04:19:23.226Z,8.30
2018-01-25T04:21:56.931Z,8.30
2018-01-25T04:24:30.701Z,8.30
2018-01-25T04:27:04.484Z,8.30
2018-01-25T04:29:38.388Z,8.20
2018-01-25T04:32:12.235Z,8.30
2018-01-25T04:34:46.916Z,8.30
2018-01-25T04:37:20.488Z,8.30
2018-01-25T04:39:54.329Z,8.20
2018-01-25T04:42:28.069Z,8.20
2018-01-25T04:45:02.572Z,8.10
2018-01-25T04:47:36.374Z,8.10
2018-01-25T04:50:09.996Z,8.10
2018-01-25T04:52:44.564Z,8.00
2018-01-25T04:55:18.425Z,8.00
2018-01-25T04:57:52.032Z,8.00
2018-01-25T05:00:25.884Z,8.00
2018-01-25T05:02:59.662Z,8.00
2018-01-25T05:05:33.411Z,7.90
2018-01-25T05:08:07.852Z,7.80
2018-01-25T05:10:41.540Z,7.80
2018-01-25T05:13:16.174Z,7.70
2018-01-25T05:15:49.840Z,7.70
2018-01-25T05:18:24.915Z,7.60
2018-01-25T05:20:58.749Z,7.60
2018-01-25T05:23:33.228Z,7.60
2018-01-25T05:26:07.041Z,7.60
2018-01-25T05:28:40.652Z,7.60
2018-01-25T05:31:14.371Z,7.60
2018-01-25T05:33:49.125Z,7.60
2018-01-25T05:36:23.502Z,7.50
2018-01-25T05:38:57.242Z,7.50
2018-01-25T05:41:31.649Z,7.50
2018-01-25T05:44:05.203Z,7.40
2018-01-25T05:46:39.379Z,7.40
2018-01-25T05:49:13.074Z,7.40
2018-01-25T05:51:46.828Z,7.40
2018-01-25T05:54:20.596Z,7.30
2018-01-25T05:56:54.326Z,7.30
2018-01-25T05:59:28.045Z,7.30
2018-01-25T06:02:01.786Z,7.20
2018-01-25T06:04:35.536Z,7.20
2018-01-25T06:07:09.252Z,7.10
2018-01-25T06:09:43.001Z,7.10
2018-01-25T06:12:16.822Z,7.10
2018-01-25T06:14:50.619Z,7.10
2018-01-25T06:17:24.445Z,7.10
2018-01-25T06:19:59.115Z,7.10
2018-01-25T06:22:32.836Z,7.10
2018-01-25T06:25:08.648Z,7.20
2018-01-25T06:27:43.194Z,7.10
2018-01-25T06:30:17.006Z,7.10
2018-01-25T06:32:50.848Z,7.10
2018-01-25T06:35:24.736Z,7.20
2018-01-25T06:37:58.732Z,7.10
2018-01-25T06:40:33.250Z,7.10
2018-01-25T06:43:06.924Z,7.10
2018-01-25T06:45:40.660Z,7.20
2018-01-25T06:48:15.175Z,7.20
2018-01-25T06:50:48.825Z,7.20
2018-01-25T06:53:22.528Z,7.20
2018-01-25T06:55:56.141Z,7.20
2018-01-25T06:58:30.862Z,7.20
2018-01-25T07:01:04.518Z,7.20
2018-01-25T07:03:39.086Z,7.20
2018-01-25T07:06:13.601Z,7.20
2018-01-25T07:08:47.906Z,7.20
2018-01-25T07:11:21.610Z,7.20
2018-01-25T07:13:55.417Z,7.30
2018-01-25T07:16:30.727Z,7.30
2018-01-25T07:19:04.333Z,7.30
2018-01-25T07:21:38.081Z,7.30
2018-01-25T07:24:11.868Z,7.30
2018-01-25T07:26:48.484Z,7.40
2018-01-25T07:29:23.284Z,7.40
2018-01-25T07:31:58.478Z,7.40
2018-01-25T07:34:32.256Z,7.40
2018-01-25T07:37:06.318Z,7.40
2018-01-25T07:39:40.006Z,7.40
2018-01-25T07:42:15.190Z,7.40
2018-01-25T07:44:49.708Z,7.40
2018-01-25T07:47:23.435Z,7.40
2018-01-25T07:49:57.150Z,7.40
2018-01-25T07:52:32.464Z,7.40
2018-01-25T07:55:06.177Z,7.40
2018-01-25T07:57:57.368Z,7.50
2018-01-25T08:00:31.037Z,7.50
2018-01-25T08:03:05.433Z,7.50
2018-01-25T08:05:39.093Z,7.50
2018-01-25T08:08:13.564Z,7.50
2018-01-25T08:13:36.337Z,7.60
2018-01-25T08:16:17.165Z,7.60
2018-01-25T08:18:50.756Z,7.60
2018-01-25T08:21:24.617Z,7.60
2018-01-25T08:23:58.368Z,7.70
2018-01-25T08:26:32.137Z,7.70
2018-01-25T08:29:06.713Z,7.80
2018-01-25T08:31:40.260Z,7.80
2018-01-25T08:34:14.882Z,7.80
2018-01-25T08:36:48.692Z,7.80
2018-01-25T08:39:22.445Z,7.80
2018-01-25T08:41:56.703Z,7.90
2018-01-25T08:44:30.557Z,7.90
2018-01-25T08:47:04.684Z,8.00
2018-01-25T08:49:39.321Z,8.10
2018-01-25T08:52:12.952Z,8.10
2018-01-25T08:54:46.585Z,8.10
2018-01-25T08:57:20.222Z,8.10
2018-01-25T08:59:54.026Z,8.20
2018-01-25T09:02:27.847Z,8.20
2018-01-25T09:05:02.476Z,8.30
2018-01-25T09:07:36.278Z,8.30
2018-01-25T09:10:10.845Z,8.30
2018-01-25T09:12:44.646Z,8.30
2018-01-25T09:15:19.583Z,8.40
2018-01-25T09:17:54.155Z,8.40
2018-01-25T09:20:28.013Z,8.40
2018-01-25T09:23:01.758Z,8.40
2018-01-25T09:25:36.219Z,8.40
2018-01-25T09:28:10.285Z,8.40
2018-01-25T09:30:45.808Z,8.40
2018-01-25T09:33:19.845Z,8.50
2018-01-25T09:35:54.352Z,8.50
2018-01-25T09:38:28.076Z,8.50
2018-01-25T09:41:01.777Z,8.60
2018-01-25T09:43:36.084Z,8.50
2018-01-25T09:46:09.713Z,8.50
2018-01-25T09:48:43.828Z,8.50
2018-01-25T09:51:17.528Z,8.60
2018-01-25T09:53:51.131Z,8.70
2018-01-25T09:56:24.858Z,8.70
2018-01-25T09:58:58.583Z,8.80
2018-01-25T10:01:32.281Z,8.80
2018-01-25T10:04:05.976Z,8.80
2018-01-25T10:06:40.513Z,8.80
2018-01-25T10:09:14.559Z,8.80
2018-01-25T10:11:48.232Z,8.90
2018-01-25T10:14:22.021Z,8.90
2018-01-25T10:16:56.069Z,9.00
2018-01-25T10:19:29.688Z,8.90
2018-01-25T10:22:03.429Z,9.00
2018-01-25T10:24:37.160Z,9.10
2018-01-25T10:27:12.564Z,9.20
2018-01-25T10:29:47.022Z,9.20
2018-01-25T10:32:20.855Z,9.30
2018-01-25T10:34:54.790Z,9.40
2018-01-25T10:37:28.580Z,9.60
2018-01-25T10:40:02.252Z,9.70
2018-01-25T10:42:36.777Z,9.80
2018-01-25T10:45:10.384Z,9.80
2018-01-25T10:47:44.896Z,9.90
2018-01-25T10:50:18.753Z,9.90
2018-01-25T10:52:52.592Z,9.80
2018-01-25T10:55:26.433Z,9.90
2018-01-25T10:58:01.072Z,9.90
2018-01-25T11:00:41.376Z,9.90
2018-01-25T11:03:15.217Z,9.90
2018-01-25T11:05:49.525Z,9.90
2018-01-25T11:08:23.280Z,10.00
2018-01-25T11:10:56.972Z,10.00
2018-01-25T11:13:31.543Z,9.90
2018-01-25T11:16:05.385Z,9.90
2018-01-25T11:18:39.432Z,9.80
2018-01-25T11:21:13.097Z,9.60
2018-01-25T11:23:47.364Z,9.40
2018-01-25T11:26:22.147Z,9.20
2018-01-25T11:28:56.794Z,9.20
2018-01-25T11:31:30.400Z,9.20
2018-01-25T11:34:05.035Z,9.10
2018-01-25T11:36:38.825Z,9.10
2018-01-25T11:39:13.288Z,9.20
2018-01-25T11:41:47.045Z,9.20
2018-01-25T11:44:21.494Z,9.20
2018-01-25T11:46:55.157Z,9.20
2018-01-25T11:49:28.902Z,9.10
2018-01-25T11:52:03.637Z,9.20
2018-01-25T11:54:37.494Z,9.20
2018-01-25T11:57:12.038Z,9.20
2018-01-25T11:59:45.800Z,9.20
2018-01-25T12:02:19.592Z,9.30
2018-01-25T12:04:53.368Z,9.40
2018-01-25T12:07:27.283Z,9.50
2018-01-25T12:10:01.069Z,9.40
2018-01-25T12:12:35.686Z,9.40
2018-01-25T12:15:08.721Z,9.40
2018-01-25T12:17:43.220Z,9.50
2018-01-25T12:20:16.917Z,9.50
2018-01-25T12:22:50.735Z,9.50
2018-01-25T12:25:24.361Z,9.60
2018-01-25T12:27:58.065Z,9.60
2018-01-25T12:30:32.697Z,9.50
2018-01-25T12:33:07.502Z,9.50
2018-01-25T12:35:41.905Z,9.50
2018-01-25T12:38:16.007Z,9.40
2018-01-25T12:40:49.661Z,9.50
2018-01-25T12:43:23.336Z,9.50
2018-01-25T12:45:56.997Z,9.60
2018-01-25T12:48:31.460Z,9.60
2018-01-25T12:51:05.160Z,9.60
2018-01-25T12:53:38.899Z,9.50
2018-01-25T12:56:12.587Z,9.50
2018-01-25T12:58:46.182Z,9.40
2018-01-25T13:01:20.015Z,9.40
2018-01-25T13:03:55.084Z,9.50
2018-01-25T13:06:30.198Z,9.50
2018-01-25T13:09:03.868Z,9.60
2018-01-25T13:11:38.484Z,9.60
2018-01-25T13:14:12.388Z,9.60
2018-01-25T13:16:47.681Z,9.60
2018-01-25T13:19:21.468Z,9.60
2018-01-25T13:21:56.105Z,9.50
2018-01-25T13:24:29.700Z,9.40
2018-01-25T13:27:05.912Z,9.40
2018-01-25T13:29:41.082Z,9.40
2018-01-25T13:32:19.922Z,9.40
2018-01-25T13:34:53.657Z,9.50
2018-01-25T13:37:27.436Z,9.40
2018-01-25T13:40:01.287Z,9.50
2018-01-25T13:42:34.978Z,9.50
2018-01-25T13:45:08.653Z,9.60
2018-01-25T13:47:43.245Z,9.70
2018-01-25T13:50:16.917Z,9.60
2018-01-25T13:52:51.472Z,9.60
2018-01-25T13:55:26.277Z,9.60
2018-01-25T13:57:59.991Z,9.60
2018-01-25T14:00:33.651Z,9.50
2018-01-25T14:03:07.375Z,9.50
2018-01-25T14:05:41.040Z,9.50
2018-01-25T14:08:14.792Z,9.50
2018-01-25T14:10:49.131Z,9.50
2018-01-25T14:13:22.915Z,9.40
2018-01-25T14:15:59.152Z,9.40
2018-01-25T14:18:33.633Z,9.40
2018-01-25T14:21:07.408Z,9.50
2018-01-25T14:23:41.229Z,9.50
2018-01-25T14:26:14.985Z,9.50
2018-01-25T14:28:49.559Z,9.40
2018-01-25T14:31:23.360Z,9.40
2018-01-25T14:33:57.116Z,9.50
2018-01-25T14:36:31.547Z,9.50
2018-01-25T14:39:05.430Z,9.50
2018-01-25T14:41:40.536Z,9.50
2018-01-25T14:44:16.079Z,9.50
2018-01-25T14:46:49.680Z,9.50
2018-01-25T14:49:23.358Z,9.50
2018-01-25T14:51:57.187Z,9.40
2018-01-25T14:54:31.607Z,9.40
2018-01-25T14:57:05.411Z,9.30
2018-01-25T14:59:39.153Z,9.40
2018-01-25T15:02:12.744Z,9.40
2018-01-25T15:04:48.324Z,9.40
2018-01-25T15:07:22.077Z,9.40
2018-01-25T15:09:55.983Z,9.40
2018-01-25T15:12:30.458Z,9.40
2018-01-25T15:15:04.212Z,9.40
2018-01-25T15:17:37.927Z,9.40
2018-01-25T15:20:11.780Z,9.40
2018-01-25T15:22:45.496Z,9.30
2018-01-25T15:25:34.021Z,9.20
2018-01-25T15:28:07.744Z,9.20
2018-01-25T15:30:41.484Z,9.20
2018-01-25T15:33:15.401Z,9.20
2018-01-25T15:35:49.266Z,9.20
2018-01-25T15:38:22.913Z,9.10
2018-01-25T15:40:56.772Z,9.10
2018-01-25T15:43:30.524Z,9.00
2018-01-25T15:46:04.385Z,9.00
2018-01-25T15:48:38.276Z,9.00
2018-01-25T15:51:12.092Z,9.00
2018-01-25T15:53:46.557Z,8.90
2018-01-25T15:56:20.225Z,8.90
2018-01-25T15:58:53.980Z,8.80
2018-01-25T16:01:27.751Z,8.70
2018-01-25T16:04:01.495Z,8.70
2018-01-25T16:06:35.289Z,8.60
2018-01-25T16:09:09.914Z,8.50
2018-01-25T16:11:43.729Z,8.50
2018-01-25T16:14:17.454Z,8.50
2018-01-25T16:16:51.236Z,8.50
2018-01-25T16:19:24.952Z,8.50
2018-01-25T16:21:58.747Z,8.60
2018-01-25T16:24:32.459Z,8.50
2018-01-25T16:27:06.152Z,8.50
2018-01-25T16:29:39.939Z,8.50
2018-01-25T16:32:13.903Z,8.50
2018-01-25T16:34:47.707Z,8.50
2018-01-25T16:37:21.570Z,8.50
2018-01-25T16:39:55.288Z,8.50
2018-01-25T16:42:28.977Z,8.50
2018-01-25T16:45:02.817Z,8.50
2018-01-25T16:47:36.435Z,8.60
2018-01-25T16:50:10.253Z,8.60
2018-01-25T16:52:44.069Z,8.70
2018-01-25T16:55:17.753Z,8.70
2018-01-25T16:57:51.682Z,8.60
2018-01-25T17:00:26.231Z,8.80
2018-01-25T17:02:59.868Z,8.70
2018-01-25T17:05:34.361Z,8.80
2018-01-25T17:08:09.019Z,8.80
2018-01-25T17:10:42.740Z,8.70
2018-01-25T17:13:19.400Z,8.70
2018-01-25T17:15:53.782Z,8.70
2018-01-25T17:18:28.547Z,8.70
2018-01-25T17:21:03.663Z,8.70
2018-01-25T17:23:37.461Z,8.70
2018-01-25T17:26:11.274Z,8.60
2018-01-25T17:28:44.945Z,8.60
2018-01-25T17:31:18.705Z,8.60
2018-01-25T17:33:53.327Z,8.60
2018-01-25T17:36:27.069Z,8.60
2018-01-25T17:39:02.261Z,8.70
2018-01-25T17:41:36.095Z,8.60
2018-01-25T17:44:09.841Z,8.70
2018-01-25T17:46:44.365Z,8.70
2018-01-25T17:49:18.133Z,8.60
2018-01-25T17:51:52.695Z,8.70
2018-01-25T17:54:27.937Z,8.70
2018-01-25T17:57:01.550Z,8.60
2018-01-25T17:59:35.238Z,8.60
2018-01-25T18:02:09.304Z,8.60
2018-01-25T18:04:42.952Z,8.60
2018-01-25T18:07:16.559Z,8.70
2018-01-25T18:09:50.461Z,8.60
2018-01-25T18:12:24.156Z,8.70
2018-01-25T18:14:57.679Z,8.70
2018-01-25T18:17:31.290Z,8.70
2018-01-25T18:20:05.396Z,8.70
2018-01-25T18:22:39.048Z,8.70
2018-01-25T18:25:12.804Z,8.70
2018-01-25T18:27:46.611Z,8.70
2018-01-25T18:30:20.334Z,8.70
2018-01-25T18:32:54.051Z,8.70
2018-01-25T18:35:28.560Z,8.60
2018-01-25T18:38:02.745Z,8.60
2018-01-25T18:40:36.564Z,8.60
2018-01-25T18:43:10.325Z,8.60
2018-01-25T18:45:43.967Z,8.60
2018-01-25T18:48:18.784Z,8.60
2018-01-25T18:50:53.353Z,8.60
2018-01-25T18:53:27.493Z,8.60
2018-01-25T18:56:01.172Z,8.60
2018-01-25T18:58:34.884Z,8.60
2018-01-25T19:01:10.282Z,8.60
2018-01-25T19:03:44.185Z,8.60
2018-01-25T19:06:17.988Z,8.60
2018-01-25T19:08:52.575Z,8.60
2018-01-25T19:11:26.159Z,8.60
2018-01-25T19:13:59.968Z,8.60
2018-01-25T19:16:34.241Z,8.60
2018-01-25T19:19:07.969Z,8.60
2018-01-25T19:21:42.403Z,8.60
2018-01-25T19:24:18.221Z,8.60
2018-01-25T19:26:52.049Z,8.60
2018-01-25T19:29:28.897Z,8.50
2018-01-25T19:32:02.794Z,8.50
2018-01-25T19:34:42.831Z,8.50
2018-01-25T19:37:17.493Z,8.50
2018-01-25T19:39:52.197Z,8.50
2018-01-25T19:42:26.631Z,8.50
2018-01-25T19:45:02.266Z,8.40
2018-01-25T19:47:37.144Z,8.40
2018-01-25T19:50:11.753Z,8.40
2018-01-25T19:52:45.548Z,8.40
2018-01-25T19:55:19.324Z,8.40
2018-01-25T19:57:53.078Z,8.40
2018-01-25T20:00:26.904Z,8.40
2018-01-25T20:03:01.635Z,8.40
2018-01-25T20:05:35.522Z,8.40
2018-01-25T20:08:09.308Z,8.40
2018-01-25T20:10:43.845Z,8.40
2018-01-25T20:13:18.536Z,8.40
2018-01-25T20:15:52.240Z,8.40
2018-01-25T20:18:26.916Z,8.40
2018-01-25T20:21:00.517Z,8.40
2018-01-25T20:23:34.953Z,8.40
2018-01-25T20:26:08.601Z,8.40
2018-01-25T20:28:42.244Z,8.40
2018-01-25T20:31:17.360Z,8.40
2018-01-25T20:33:51.144Z,8.40
2018-01-25T20:36:24.924Z,8.40
2018-01-25T20:38:58.776Z,8.40
2018-01-25T20:41:32.562Z,8.30
2018-01-25T20:46:50.213Z,8.30
2018-01-25T20:49:28.263Z,8.20
2018-01-25T20:52:02.591Z,8.20
2018-01-25T20:54:49.323Z,8.20
2018-01-25T20:57:23.110Z,8.10
2018-01-25T20:59:58.011Z,8.10
2018-01-25T21:02:33.336Z,8.10
2018-01-25T21:07:47.759Z,8.10
2018-01-25T21:13:01.765Z,8.10
2018-01-25T21:15:36.397Z,8.10
2018-01-25T21:18:10.051Z,8.00
2018-01-25T21:20:44.535Z,8.00
2018-01-25T21:23:21.173Z,8.00
2018-01-25T21:25:54.946Z,7.90
2018-01-25T21:28:29.572Z,7.90
2018-01-25T21:31:04.521Z,7.90
2018-01-25T21:33:39.130Z,8.00
2018-01-25T21:36:13.210Z,8.00
2018-01-25T21:41:28.917Z,7.90
2018-01-25T21:46:44.000Z,7.90
2018-01-25T21:49:19.744Z,7.90
2018-01-25T21:51:53.496Z,7.90
2018-01-25T21:54:27.254Z,7.80
2018-01-25T21:57:01.674Z,7.80
2018-01-25T21:59:36.850Z,7.80
2018-01-25T22:02:11.392Z,7.80
2018-01-25T22:04:45.275Z,7.80
2018-01-25T22:07:19.127Z,7.80
2018-01-25T22:09:52.805Z,7.80
2018-01-25T22:12:27.753Z,7.80
2018-01-25T22:15:01.568Z,7.80
2018-01-25T22:17:35.312Z,7.80
2018-01-25T22:20:09.669Z,7.80
2018-01-25T22:22:44.000Z,7.80
2018-01-25T22:25:18.803Z,7.80
2018-01-25T22:27:52.747Z,7.70
2018-01-25T22:30:27.521Z,7.80
2018-01-25T22:33:02.152Z,7.70
2018-01-25T22:35:36.777Z,7.70
2018-01-25T22:38:11.650Z,7.70
2018-01-25T22:40:45.859Z,7.70
2018-01-25T22:43:20.679Z,7.70
2018-01-25T22:45:55.148Z,7.70
2018-01-25T22:48:30.292Z,7.70
2018-01-25T22:51:04.711Z,7.70
2018-01-25T22:53:38.444Z,7.70
2018-01-25T22:56:12.226Z,7.70
2018-01-25T22:58:46.836Z,7.70
2018-01-25T23:01:20.455Z,7.70
2018-01-25T23:03:54.420Z,7.70
2018-01-25T23:06:28.101Z,7.70
2018-01-25T23:09:01.805Z,7.70
2018-01-25T23:11:35.511Z,7.70
2018-01-25T23:14:09.131Z,7.70
2018-01-25T23:16:44.340Z,7.70
2018-01-25T23:19:19.267Z,7.60
2018-01-25T23:21:53.596Z,7.60
2018-01-25T23:24:27.363Z,7.60
2018-01-25T23:27:01.062Z,7.60
2018-01-25T23:29:36.008Z,7.70
2018-01-25T23:32:10.624Z,7.70
2018-01-25T23:34:45.412Z,7.60
2018-01-25T23:37:19.095Z,7.70
2018-01-25T23:42:36.617Z,7.60
2018-01-25T23:45:14.564Z,7.70
2018-01-25T23:47:48.816Z,7.70
2018-01-25T23:50:22.547Z,7.60
2018-01-25T23:52:57.183Z,7.60
2018-01-25T23:55:30.932Z,7.60
2018-01-25T23:58:04.687Z,7.50
